Time;durP1;ratioP1;P1;durP2;ratioP2;P2;SDS_P1;SDS_P2;PMS_P1;PMS_P2;Temp;Humidity;BMP_temperature;BMP_pressure;BME280_temperature;BME280_humidity;BME280_pressure;Samples;Min_cycle;Max_cycle;Signal;HPM_P1;HPM_P2
2021/07/04 00:00:28;;;;;;;;;5.75;5.75;;;;;22.67;58.91;100788.72;4922535;28;45554;-73
2021/07/04 00:02:54;;;;;;;;;4.25;4.25;;;;;22.57;58.78;100775.03;4922267;28;46572;-73
2021/07/04 00:05:22;;;;;;;;;5.25;5.25;;;;;22.65;59.23;100779.81;4927381;28;45397;-73
2021/07/04 00:07:48;;;;;;;;;4.25;4.25;;;;;22.64;59.10;100778.09;4924915;28;45407;-73
2021/07/04 00:10:17;;;;;;;;;4.00;4.00;;;;;22.63;59.66;100782.66;4926884;28;45654;-73
2021/07/04 00:12:43;;;;;;;;;8.00;6.00;;;;;22.61;59.21;100786.50;4928554;28;47673;-73
2021/07/04 00:15:12;;;;;;;;;5.00;5.00;;;;;22.51;59.07;100768.22;4918757;28;45497;-73
2021/07/04 00:17:37;;;;;;;;;5.25;4.25;;;;;22.49;59.64;100762.06;4924250;28;45355;-73
2021/07/04 00:20:09;;;;;;;;;7.00;5.00;;;;;22.55;59.18;100779.72;4918353;28;45425;-73
2021/07/04 00:22:34;;;;;;;;;5.00;5.00;;;;;22.47;59.71;100768.59;4922513;28;48608;-73
2021/07/04 00:25:00;;;;;;;;;4.25;3.50;;;;;22.55;59.61;100776.97;4918224;28;45494;-73
2021/07/04 00:27:25;;;;;;;;;5.50;4.50;;;;;22.53;59.12;100774.38;4922732;28;45512;-73
2021/07/04 00:29:50;;;;;;;;;5.25;5.25;;;;;22.55;59.40;100768.81;4922244;28;45447;-73
2021/07/04 00:32:16;;;;;;;;;5.00;5.00;;;;;22.54;59.36;100765.25;4921948;28;45409;-73
2021/07/04 00:34:41;;;;;;;;;6.00;3.75;;;;;22.51;59.36;100748.31;4921900;28;45274;-73
2021/07/04 00:37:07;;;;;;;;;5.25;4.00;;;;;22.55;59.86;100752.50;4922474;28;45303;-73
2021/07/04 00:39:32;;;;;;;;;6.25;5.75;;;;;22.47;59.82;100742.28;4922126;28;45521;-73
2021/07/04 00:41:57;;;;;;;;;4.00;4.00;;;;;22.45;59.59;100735.22;4922047;28;46265;-73
2021/07/04 00:44:23;;;;;;;;;3.75;3.75;;;;;22.51;59.50;100743.75;4922176;28;45345;-73
2021/07/04 00:46:48;;;;;;;;;4.00;4.00;;;;;22.51;59.30;100740.16;4922276;28;45604;-73
2021/07/04 00:49:13;;;;;;;;;5.50;5.50;;;;;22.56;59.03;100752.38;4904502;28;45638;-73
2021/07/04 00:51:39;;;;;;;;;5.00;5.00;;;;;22.55;59.58;100749.78;4922285;28;45379;-73
2021/07/04 00:54:04;;;;;;;;;8.00;6.50;;;;;22.53;59.29;100749.91;4925341;28;45360;-73
2021/07/04 00:56:29;;;;;;;;;4.00;4.00;;;;;22.50;59.83;100755.63;4922427;28;45141;-73
2021/07/04 00:58:55;;;;;;;;;4.50;4.50;;;;;22.42;59.50;100740.91;4921775;28;45346;-73
2021/07/04 01:01:20;;;;;;;;;5.25;5.25;;;;;22.37;59.99;100739.44;4921827;28;47067;-73
2021/07/04 01:03:46;;;;;;;;;6.25;5.00;;;;;22.40;59.85;100743.75;4917907;28;45397;-73
2021/07/04 01:06:11;;;;;;;;;6.00;6.00;;;;;22.38;60.21;100743.88;4921677;28;45222;-73
2021/07/04 01:08:37;;;;;;;;;7.00;6.00;;;;;22.30;59.74;100727.34;4922739;28;45588;-73
2021/07/04 01:11:04;;;;;;;;;4.00;4.00;;;;;22.28;59.92;100725.72;4921828;28;47168;-73
2021/07/04 01:13:29;;;;;;;;;5.25;5.00;;;;;22.29;60.33;100732.91;4924610;28;45481;-73
2021/07/04 01:15:56;;;;;;;;;5.00;5.00;;;;;22.31;60.20;100736.38;4921927;28;45267;-73
2021/07/04 01:18:21;;;;;;;;;5.00;5.00;;;;;22.28;60.03;100731.16;4918727;28;45405;-73
2021/07/04 01:20:47;;;;;;;;;4.75;4.75;;;;;22.27;60.17;100734.84;4921643;28;46291;-73
2021/07/04 01:23:16;;;;;;;;;6.00;5.25;;;;;22.30;60.52;100731.91;4921489;28;45410;-73
2021/07/04 01:25:55;;;;;;;;;4.50;4.00;;;;;22.28;60.09;100723.88;4917987;28;45303;-73
2021/07/04 01:28:20;;;;;;;;;5.50;5.50;;;;;22.29;60.07;100733.78;4918537;28;45461;-73
2021/07/04 01:30:50;;;;;;;;;5.00;5.00;;;;;22.20;60.35;100718.16;4921573;28;46357;-73
2021/07/04 01:33:15;;;;;;;;;8.75;5.50;;;;;22.22;60.26;100729.81;4920930;28;45518;-73
2021/07/04 01:35:41;;;;;;;;;4.75;4.75;;;;;22.25;60.25;100744.97;4921440;28;45534;-73
2021/07/04 01:38:07;;;;;;;;;5.00;3.75;;;;;22.25;60.20;100745.84;4904358;28;45460;-73
2021/07/04 01:40:33;;;;;;;;;6.00;5.00;;;;;22.22;60.26;100732.53;4904195;28;48102;-73
2021/07/04 01:42:59;;;;;;;;;4.75;4.75;;;;;22.21;60.76;100734.34;4921346;28;45473;-73
2021/07/04 01:45:25;;;;;;;;;6.00;6.00;;;;;22.20;60.62;100726.31;4904313;28;45259;-73
2021/07/04 01:47:54;;;;;;;;;6.00;6.00;;;;;22.14;60.70;100711.38;4920763;28;45383;-73
2021/07/04 01:50:25;;;;;;;;;5.25;4.25;;;;;22.19;60.59;100730.91;4921004;28;46266;-73
2021/07/04 01:52:51;;;;;;;;;5.50;5.25;;;;;22.17;60.33;100726.59;4921348;28;45539;-73
2021/07/04 01:55:19;;;;;;;;;5.25;5.25;;;;;22.14;60.74;100735.00;4921385;28;45374;-73
2021/07/04 01:57:46;;;;;;;;;5.75;4.50;;;;;22.12;60.79;100735.13;4921157;28;45515;-73
2021/07/04 02:00:24;;;;;;;;;4.50;4.00;;;;;22.12;60.98;100729.69;4921207;28;45801;-73
2021/07/04 02:02:53;;;;;;;;;4.00;3.75;;;;;22.08;60.74;100719.19;4920832;28;45514;-73
2021/07/04 02:05:19;;;;;;;;;5.00;5.00;;;;;22.08;60.43;100714.59;4903922;28;45627;-72
2021/07/04 02:07:44;;;;;;;;;5.00;5.00;;;;;22.09;60.35;100726.34;4922968;28;45463;-73
2021/07/04 02:10:16;;;;;;;;;5.25;5.25;;;;;22.08;60.56;100719.19;4920890;28;45371;-73
2021/07/04 02:12:42;;;;;;;;;5.25;5.25;;;;;22.06;60.40;100724.75;4927813;28;45586;-73
2021/07/04 02:15:12;;;;;;;;;3.75;3.75;;;;;21.98;60.45;100710.91;4921168;28;45360;-73
2021/07/04 02:17:38;;;;;;;;;6.00;6.00;;;;;22.01;60.71;100716.09;4924376;28;45936;-73
2021/07/04 02:20:33;;;;;;;;;3.25;3.25;;;;;22.00;61.08;100719.78;4906232;28;46304;-73
2021/07/04 02:23:25;;;;;;;;;4.75;4.75;;;;;21.93;60.63;100716.69;4888276;28;45361;-73
2021/07/04 02:25:50;;;;;;;;;4.00;4.00;;;;;21.90;61.23;100722.41;4928050;28;45646;-73
2021/07/04 02:28:20;;;;;;;;;2.75;2.75;;;;;21.90;61.00;100725.13;4905426;28;45466;-73
2021/07/04 02:30:46;;;;;;;;;5.75;4.75;;;;;21.86;61.10;100723.63;4905091;28;46097;-73
2021/07/04 02:33:14;;;;;;;;;4.00;4.00;;;;;21.74;61.14;100706.47;4904565;29;45477;-73
2021/07/04 02:35:44;;;;;;;;;4.00;2.50;;;;;21.77;61.03;100708.94;4905155;28;45319;-73
2021/07/04 02:38:10;;;;;;;;;6.75;5.00;;;;;21.84;61.54;100720.19;4905257;28;45468;-73
2021/07/04 02:40:37;;;;;;;;;4.25;4.25;;;;;21.81;61.40;100709.56;4904986;28;46328;-72
2021/07/04 02:43:03;;;;;;;;;2.75;2.75;;;;;21.82;61.36;100712.16;4905281;29;45393;-73
2021/07/04 02:45:30;;;;;;;;;4.00;4.00;;;;;21.78;61.47;100704.34;4904939;28;45803;-74
2021/07/04 02:47:55;;;;;;;;;5.50;5.50;;;;;21.78;61.13;100712.50;4921651;28;45399;-73
2021/07/04 02:50:22;;;;;;;;;5.50;4.00;;;;;21.72;61.78;100713.00;4939352;28;46024;-73
2021/07/04 02:52:52;;;;;;;;;6.00;4.25;;;;;21.68;61.19;100709.66;4905175;29;45239;-73
2021/07/04 02:55:20;;;;;;;;;7.75;6.00;;;;;21.69;61.26;100711.41;4887828;29;45483;-73
2021/07/04 02:57:46;;;;;;;;;4.75;4.75;;;;;21.69;61.30;100719.56;4905064;28;45309;-73
2021/07/04 03:00:14;;;;;;;;;4.00;4.00;;;;;21.69;61.57;100716.84;4904638;29;45402;-73
2021/07/04 03:02:39;;;;;;;;;5.25;5.25;;;;;21.71;61.46;100708.56;4904694;29;45581;-73
2021/07/04 03:05:06;;;;;;;;;6.25;5.00;;;;;21.67;61.72;100710.66;4904832;29;45432;-73
2021/07/04 03:07:32;;;;;;;;;4.00;4.00;;;;;21.69;61.95;100705.97;4923999;28;45470;-73
2021/07/04 03:09:58;;;;;;;;;4.00;4.00;;;;;21.62;61.55;100694.72;4936285;28;46273;-73
2021/07/04 03:12:23;;;;;;;;;5.25;5.00;;;;;21.60;61.78;100695.81;4904802;28;45424;-73
2021/07/04 03:14:49;;;;;;;;;4.50;4.50;;;;;21.65;62.05;100705.34;4929970;28;45602;-73
2021/07/04 03:17:14;;;;;;;;;5.25;5.25;;;;;21.65;62.07;100705.34;4912640;28;45422;-73
2021/07/04 03:19:39;;;;;;;;;6.00;5.00;;;;;21.68;61.65;100696.06;4910514;28;45370;-73
2021/07/04 03:22:05;;;;;;;;;7.50;7.00;;;;;21.61;62.37;100687.56;4915222;28;45226;-73
2021/07/04 03:24:30;;;;;;;;;5.00;5.00;;;;;21.60;61.87;100696.72;4906122;28;45300;-73
2021/07/04 03:26:56;;;;;;;;;4.50;4.50;;;;;21.57;62.14;100694.22;4926054;28;45314;-73
2021/07/04 03:29:21;;;;;;;;;8.25;6.50;;;;;21.55;62.88;100687.19;4903869;29;45889;-73
2021/07/04 03:31:47;;;;;;;;;6.00;6.00;;;;;21.51;62.51;100686.56;4904093;28;45316;-73
2021/07/04 03:34:12;;;;;;;;;6.25;5.75;;;;;21.49;63.04;100693.97;4904007;28;45545;-73
2021/07/04 03:36:38;;;;;;;;;7.25;6.00;;;;;21.37;63.08;100671.34;4904286;28;45503;-73
2021/07/04 03:39:04;;;;;;;;;4.50;4.25;;;;;21.33;62.63;100672.56;4904185;28;45601;-73
2021/07/04 03:41:30;;;;;;;;;5.75;5.75;;;;;21.38;62.88;100696.63;4904321;28;45301;-73
2021/07/04 03:43:59;;;;;;;;;4.50;4.50;;;;;21.46;63.21;100713.19;4904056;28;45435;-73
2021/07/04 03:46:24;;;;;;;;;4.50;4.50;;;;;21.46;62.99;100713.19;4904115;29;45510;-73
2021/07/04 03:48:50;;;;;;;;;6.75;5.00;;;;;21.46;62.72;100716.75;4903701;29;45328;-73
2021/07/04 03:51:15;;;;;;;;;5.00;5.00;;;;;21.49;63.75;100726.56;4904248;29;45326;-73
2021/07/04 03:53:40;;;;;;;;;5.00;5.00;;;;;21.46;64.63;100711.31;4904230;29;45263;-73
2021/07/04 03:56:06;;;;;;;;;4.25;4.00;;;;;21.40;64.25;100697.38;4903846;29;45354;-73
2021/07/04 03:58:31;;;;;;;;;3.00;3.00;;;;;21.40;65.07;100700.97;4898644;28;49052;-73
2021/07/04 04:00:56;;;;;;;;;4.50;4.50;;;;;21.36;64.51;100682.31;4904106;29;45338;-73
2021/07/04 04:03:22;;;;;;;;;4.00;4.00;;;;;21.25;64.58;100680.44;4907342;28;45674;-73
2021/07/04 04:05:47;;;;;;;;;3.75;3.75;;;;;21.27;65.28;100697.47;4903902;28;46146;-73
2021/07/04 04:08:12;;;;;;;;;5.75;5.00;;;;;21.20;65.22;100688.06;4903737;28;46018;-73
2021/07/04 04:10:38;;;;;;;;;3.50;3.00;;;;;21.18;64.88;100688.19;4903764;28;45471;-73
2021/07/04 04:13:03;;;;;;;;;4.00;4.00;;;;;21.22;65.51;100700.56;4894510;28;45337;-73
2021/07/04 04:15:28;;;;;;;;;3.25;3.25;;;;;21.13;65.69;100694.97;4903759;29;45555;-73
2021/07/04 04:17:56;;;;;;;;;3.00;3.00;;;;;21.12;65.80;100701.38;4911919;28;45453;-73
2021/07/04 04:20:22;;;;;;;;;4.00;3.50;;;;;21.08;65.47;100703.47;4903556;29;45475;-73
2021/07/04 04:22:47;;;;;;;;;3.50;3.00;;;;;21.10;65.90;100705.09;4905190;28;45445;-73
2021/07/04 04:25:12;;;;;;;;;4.00;4.00;;;;;;;;4910804;28;45422;-73
2021/07/04 04:27:38;;;;;;;;;3.00;3.00;;;;;20.97;65.61;100688.03;4896165;28;47759;-73
2021/07/04 04:30:05;;;;;;;;;3.00;3.00;;;;;20.96;66.05;100689.00;4917058;28;45471;-73
2021/07/04 04:32:30;;;;;;;;;2.25;2.25;;;;;20.97;65.52;100701.59;4890914;29;45400;-73
2021/07/04 04:34:56;;;;;;;;;3.25;3.25;;;;;20.88;66.32;100691.44;4903362;29;45382;-72
2021/07/04 04:37:21;;;;;;;;;3.00;1.75;;;;;20.85;65.78;100688.97;4886361;29;47087;-73
2021/07/04 04:39:46;;;;;;;;;2.25;2.25;;;;;20.81;66.02;100682.03;4903472;29;45223;-73
2021/07/04 04:42:12;;;;;;;;;3.00;3.00;;;;;20.86;65.96;100679.84;4905498;28;45560;-72
2021/07/04 04:44:37;;;;;;;;;3.00;3.00;;;;;20.86;65.77;100674.41;4886254;29;45529;-72
2021/07/04 04:47:04;;;;;;;;;3.00;3.00;;;;;20.75;65.59;100652.66;4902945;29;46230;-73
2021/07/04 04:49:29;;;;;;;;;3.00;3.00;;;;;20.83;65.77;100678.25;4903343;29;45590;-73
2021/07/04 04:51:55;;;;;;;;;4.00;4.00;;;;;20.84;65.99;100679.09;4903367;29;45453;-72
2021/07/04 04:54:20;;;;;;;;;3.00;3.00;;;;;20.86;66.03;100677.13;4903068;28;45733;-73
2021/07/04 04:56:46;;;;;;;;;2.75;2.75;;;;;20.85;65.84;100672.69;4907597;28;45491;-72
2021/07/04 04:59:11;;;;;;;;;3.00;3.00;;;;;20.87;66.25;100676.16;4903168;28;45346;-73
2021/07/04 05:01:36;;;;;;;;;3.25;3.25;;;;;20.81;66.65;100669.31;4903331;29;45360;-72
2021/07/04 05:04:02;;;;;;;;;4.50;3.50;;;;;20.80;66.50;100669.44;4902660;29;45335;-73
2021/07/04 05:06:27;;;;;;;;;3.50;3.50;;;;;20.86;66.52;100677.97;4905067;28;46343;-73
2021/07/04 05:08:53;;;;;;;;;2.75;2.75;;;;;20.81;66.79;100666.63;4903060;29;45352;-73
2021/07/04 05:11:19;;;;;;;;;4.75;3.75;;;;;20.87;66.76;100670.72;4903212;29;45420;-73
2021/07/04 05:13:44;;;;;;;;;2.50;2.50;;;;;20.88;67.04;100680.56;4903053;29;45477;-72
2021/07/04 05:16:10;;;;;;;;;4.25;4.00;;;;;20.86;66.60;100685.25;4902563;29;46112;-72
2021/07/04 05:18:36;;;;;;;;;3.75;3.75;;;;;20.79;67.02;100678.59;4913415;28;45357;-73
2021/07/04 05:21:03;;;;;;;;;3.00;2.25;;;;;20.80;67.16;100683.91;4921979;28;45266;-73
2021/07/04 05:23:29;;;;;;;;;4.00;3.00;;;;;20.86;66.83;100691.53;4903410;28;45317;-72
2021/07/04 05:25:57;;;;;;;;;4.00;4.00;;;;;20.84;66.85;100698.94;4925320;28;45473;-72
2021/07/04 05:28:23;;;;;;;;;4.00;3.00;;;;;20.85;66.77;100702.53;4902773;29;45459;-72
2021/07/04 05:30:48;;;;;;;;;2.75;2.75;;;;;20.77;67.07;100691.41;4904853;28;45489;-72
2021/07/04 05:33:14;;;;;;;;;3.00;3.00;;;;;20.83;66.74;100696.34;4926040;28;45428;-72
2021/07/04 05:35:40;;;;;;;;;3.00;3.00;;;;;20.79;67.05;100694.84;4902486;29;45921;-72
2021/07/04 05:38:11;;;;;;;;;5.25;3.75;;;;;20.77;66.74;100680.56;4902770;29;45338;-72
2021/07/04 05:40:36;;;;;;;;;5.00;5.00;;;;;20.79;66.82;100694.84;4902608;29;45503;-72
2021/07/04 05:43:02;;;;;;;;;3.25;3.25;;;;;20.66;66.97;100670.50;4902679;29;45447;-72
2021/07/04 05:45:27;;;;;;;;;4.75;3.00;;;;;20.73;67.33;100679.91;4902451;28;47101;-73
2021/07/04 05:47:53;;;;;;;;;5.00;4.00;;;;;20.66;67.31;100676.78;4902271;29;45305;-72
2021/07/04 05:50:19;;;;;;;;;4.50;3.75;;;;;20.68;67.13;100676.66;4902546;29;45379;-72
2021/07/04 05:52:45;;;;;;;;;4.00;4.00;;;;;20.67;67.59;100686.66;4903204;29;45258;-73
2021/07/04 05:55:13;;;;;;;;;4.00;4.00;;;;;20.66;67.46;100682.22;4908169;28;47279;-72
2021/07/04 05:57:38;;;;;;;;;4.25;4.25;;;;;20.65;67.38;100685.06;4916136;28;45910;-72
2021/07/04 06:00:06;;;;;;;;;4.75;4.75;;;;;20.63;67.76;100681.59;4905621;29;45293;-72
2021/07/04 06:02:31;;;;;;;;;6.75;5.00;;;;;20.57;67.72;100676.63;4905413;29;45584;-72
2021/07/04 06:04:57;;;;;;;;;4.00;4.00;;;;;20.65;67.71;100687.78;4905431;29;46146;-72
2021/07/04 06:07:22;;;;;;;;;4.00;3.00;;;;;20.56;67.30;100675.72;4905793;29;45431;-72
2021/07/04 06:09:47;;;;;;;;;4.25;4.25;;;;;20.59;67.80;100682.78;4905521;28;45548;-72
2021/07/04 06:12:13;;;;;;;;;3.25;3.25;;;;;20.63;67.48;100689.72;4905608;28;45358;-72
2021/07/04 06:14:38;;;;;;;;;3.25;3.25;;;;;20.61;67.67;100694.38;4906520;28;46061;-73
2021/07/04 06:17:04;;;;;;;;;3.00;3.00;;;;;20.58;67.58;100690.06;4927721;28;45482;-72
2021/07/04 06:19:29;;;;;;;;;3.00;3.00;;;;;20.53;67.69;100678.66;4910845;28;45426;-73
2021/07/04 06:21:55;;;;;;;;;3.50;2.00;;;;;20.48;67.98;100670.00;4905526;29;45392;-72
2021/07/04 06:24:20;;;;;;;;;4.00;4.00;;;;;20.56;67.67;100686.56;4906442;28;45456;-72
2021/07/04 06:26:45;;;;;;;;;5.00;3.00;;;;;20.44;67.90;100666.66;4902082;28;45240;-73
2021/07/04 06:29:11;;;;;;;;;4.00;3.00;;;;;20.42;67.66;100670.50;4906767;28;45385;-73
2021/07/04 06:31:36;;;;;;;;;4.50;4.00;;;;;20.47;67.91;100677.28;4911928;28;45614;-73
2021/07/04 06:34:02;;;;;;;;;3.00;3.00;;;;;20.57;68.33;100685.59;4912587;28;45581;-75
2021/07/04 06:36:28;;;;;;;;;4.00;3.00;;;;;20.53;68.36;100681.38;4923441;28;45546;-73
2021/07/04 06:38:57;;;;;;;;;3.00;3.00;;;;;20.55;68.04;100679.44;4932545;28;45414;-77
2021/07/04 06:41:22;;;;;;;;;2.50;2.50;;;;;20.53;68.04;100671.41;4916494;28;45523;-79
2021/07/04 06:43:48;;;;;;;;;3.00;3.00;;;;;20.63;68.16;100673.44;4927667;28;45513;-80
2021/07/04 06:46:13;;;;;;;;;3.25;3.25;;;;;20.68;68.04;100673.97;4907406;28;45462;-80
2021/07/04 06:48:39;;;;;;;;;3.00;3.00;;;;;20.68;67.93;100674.84;4909817;28;45391;-81
2021/07/04 06:51:05;;;;;;;;;3.50;3.50;;;;;20.71;68.02;100685.47;4906823;28;45525;-79
2021/07/04 06:53:31;;;;;;;;;3.00;3.00;;;;;20.72;67.24;100686.31;4904968;28;45349;-80
2021/07/04 06:55:56;;;;;;;;;3.25;3.25;;;;;20.70;67.64;100683.72;4904826;29;45263;-79
2021/07/04 06:58:22;;;;;;;;;3.75;3.00;;;;;20.65;67.47;100675.06;4917598;28;45318;-80
2021/07/04 07:00:47;;;;;;;;;3.25;3.25;;;;;20.63;67.63;100673.44;4881469;28;45444;-81
2021/07/04 07:03:13;;;;;;;;;3.00;2.00;;;;;20.54;67.58;100658.72;4885222;29;46659;-81
2021/07/04 07:05:38;;;;;;;;;6.00;3.25;;;;;20.53;67.31;100666.00;4898968;29;45378;-81
2021/07/04 07:08:04;;;;;;;;;3.00;3.00;;;;;20.62;67.48;100680.69;4901442;29;45293;-81
2021/07/04 07:10:29;;;;;;;;;4.00;4.00;;;;;20.59;68.02;100680.91;4895120;29;45327;-81
2021/07/04 07:12:55;;;;;;;;;4.00;4.00;;;;;20.64;67.91;100681.47;4892548;29;46125;-80
2021/07/04 07:15:20;;;;;;;;;2.50;2.50;;;;;20.64;67.66;100681.47;4885629;29;45349;-79
2021/07/04 07:17:46;;;;;;;;;5.00;4.00;;;;;20.65;67.52;100674.22;4889228;29;45886;-82
2021/07/04 07:20:12;;;;;;;;;4.00;4.00;;;;;20.66;67.27;100667.78;4885468;29;45483;-82
2021/07/04 07:22:39;;;;;;;;;3.00;3.00;;;;;20.65;67.08;100677.78;4897749;29;47371;-81
2021/07/04 07:25:06;;;;;;;;;3.75;2.75;;;;;20.74;67.26;100687.06;4887383;29;45582;-81
2021/07/04 07:27:31;;;;;;;;;3.75;3.75;;;;;20.76;67.71;100686.94;4898043;29;45200;-82
2021/07/04 07:29:57;;;;;;;;;3.00;3.00;;;;;20.76;67.39;100681.53;4899302;29;45455;-82
2021/07/04 07:32:22;;;;;;;;;2.50;2.00;;;;;20.75;66.67;100694.22;4903568;29;46110;-75
2021/07/04 07:34:47;;;;;;;;;2.67;2.67;;;;;20.79;67.32;100705.72;4896569;29;45803;-76
2021/07/04 07:37:14;;;;;;;;;2.00;2.00;;;;;20.79;67.96;100706.56;4885469;29;45231;-81
2021/07/04 07:39:39;;;;;;;;;3.00;3.00;;;;;20.78;67.80;100703.97;4885291;29;45381;-82
2021/07/04 07:42:05;;;;;;;;;3.00;2.00;;;;;20.77;67.12;100708.53;4896871;29;46419;-81
2021/07/04 07:44:30;;;;;;;;;3.50;3.00;;;;;20.77;67.05;100707.69;4885018;29;45411;-80
2021/07/04 07:46:56;;;;;;;;;3.00;3.00;;;;;20.66;67.71;100689.50;4877174;29;45547;-79
2021/07/04 07:49:21;;;;;;;;;4.00;3.50;;;;;20.72;66.81;100708.03;4900069;29;45479;-78
2021/07/04 07:51:49;;;;;;;;;3.75;3.75;;;;;20.72;66.68;100714.31;4882679;29;47313;-79
2021/07/04 07:54:16;;;;;;;;;2.00;2.00;;;;;20.72;67.13;100717.00;4883214;29;45576;-79
2021/07/04 07:56:42;;;;;;;;;2.50;2.50;;;;;20.73;67.16;100715.16;4888901;29;45361;-79
2021/07/04 07:59:07;;;;;;;;;4.00;4.00;;;;;20.69;66.93;100714.53;4901745;29;45619;-79
2021/07/04 08:01:32;;;;;;;;;3.25;2.25;;;;;20.66;67.08;100703.06;4899209;29;46120;-78
2021/07/04 08:03:58;;;;;;;;;4.00;3.00;;;;;20.69;67.24;100708.25;4893468;29;45533;-78
2021/07/04 08:06:23;;;;;;;;;3.50;3.00;;;;;20.59;66.98;100693.63;4883964;29;45372;-78
2021/07/04 08:08:49;;;;;;;;;3.00;3.00;;;;;20.68;67.32;100709.22;4887674;29;45309;-78
2021/07/04 08:11:14;;;;;;;;;3.75;3.50;;;;;20.70;68.02;100710.84;4896711;29;45348;-78
2021/07/04 08:13:39;;;;;;;;;3.00;3.00;;;;;20.66;68.19;100703.91;4883923;29;45743;-78
2021/07/04 08:16:05;;;;;;;;;3.00;2.00;;;;;20.71;67.38;100699.03;4898561;29;45719;-78
2021/07/04 08:18:30;;;;;;;;;5.25;4.25;;;;;20.72;67.61;100679.03;4901303;29;45540;-78
2021/07/04 08:20:56;;;;;;;;;2.00;2.00;;;;;20.77;66.87;100680.56;4900547;29;45454;-79
2021/07/04 08:23:21;;;;;;;;;2.50;2.00;;;;;20.79;66.38;100667.72;4883689;29;45613;-77
2021/07/04 08:25:47;;;;;;;;;2.50;2.00;;;;;20.78;66.26;100652.44;4892691;29;45555;-78
2021/07/04 08:28:13;;;;;;;;;2.75;2.00;;;;;20.86;67.23;100647.28;4902725;29;45447;-78
2021/07/04 08:30:38;;;;;;;;;1.00;1.00;;;;;20.85;66.79;100640.16;4886991;29;45981;-78
2021/07/04 08:33:04;;;;;;;;;2.00;2.00;;;;;20.89;67.32;100645.19;4883119;29;45419;-78
2021/07/04 08:35:29;;;;;;;;;1.50;1.50;;;;;20.97;66.67;100652.75;4871707;29;45460;-78
2021/07/04 08:37:55;;;;;;;;;3.00;1.00;;;;;20.97;65.95;100649.19;4883673;29;45440;-78
2021/07/04 08:40:20;;;;;;;;;1.00;1.00;;;;;20.69;64.76;100606.03;4886885;29;45413;-78
2021/07/04 08:42:46;;;;;;;;;0.00;0.00;;;;;20.95;64.93;100657.44;4904233;28;45382;-77
2021/07/04 08:45:11;;;;;;;;;1.75;1.75;;;;;21.04;66.34;100664.84;4895016;29;45434;-77
2021/07/04 08:47:38;;;;;;;;;2.00;2.00;;;;;21.06;65.43;100679.16;4885000;29;45443;-77
2021/07/04 08:50:05;;;;;;;;;3.75;3.75;;;;;21.09;66.09;100680.78;4883458;29;46383;-78
2021/07/04 08:52:31;;;;;;;;;4.00;2.00;;;;;21.06;65.94;100676.44;4884213;29;45341;-77
2021/07/04 08:54:57;;;;;;;;;2.75;2.75;;;;;21.12;67.00;100680.53;4884564;29;45449;-77
2021/07/04 08:57:22;;;;;;;;;2.75;2.00;;;;;21.15;66.73;100679.41;4884016;29;45381;-78
2021/07/04 08:59:48;;;;;;;;;5.00;3.00;;;;;21.13;66.79;100668.69;4893694;29;46085;-78
2021/07/04 09:02:29;;;;;;;;;1.00;1.00;;;;;21.17;65.13;100670.19;4885435;29;45348;-78
2021/07/04 09:05:06;;;;;;;;;1.50;1.50;;;;;21.20;64.70;100669.06;4884608;29;45492;-77
2021/07/04 09:07:33;;;;;;;;;2.00;1.00;;;;;21.02;65.80;100623.41;4884235;29;45415;-78
2021/07/04 09:10:05;;;;;;;;;6.00;1.25;;;;;21.25;66.18;100675.00;4890971;29;46112;-79
2021/07/04 09:12:35;;;;;;;;;2.00;1.25;;;;;21.23;65.41;100657.97;4890964;29;45530;-78
2021/07/04 09:15:08;;;;;;;;;1.25;1.25;;;;;21.28;63.93;100672.94;4897780;29;45560;-78
2021/07/04 09:17:35;;;;;;;;;0.00;0.00;;;;;21.23;63.97;100656.16;4896639;29;45379;-78
2021/07/04 09:20:02;;;;;;;;;1.00;1.00;;;;;21.30;64.04;100667.38;4887886;29;45495;-78
2021/07/04 09:22:39;;;;;;;;;0.75;0.75;;;;;21.31;63.81;100668.25;4880909;29;45560;-76
2021/07/04 09:25:09;;;;;;;;;0.00;0.00;;;;;21.26;63.48;100658.59;4897587;29;45372;-75
2021/07/04 09:27:35;;;;;;;;;0.50;0.50;;;;;21.34;64.15;100662.56;4884262;29;45388;-79
2021/07/04 09:30:00;;;;;;;;;1.00;1.00;;;;;21.34;63.16;100660.72;4886865;29;46055;-80
2021/07/04 09:32:28;;;;;;;;;3.75;0.75;;;;;21.35;64.33;100651.59;4901019;29;45662;-81
2021/07/04 09:35:20;;;;;;;;;1.00;1.00;;;;;21.44;64.61;100653.56;4888243;29;45377;-85
2021/07/04 09:37:50;;;;;;;;;1.00;1.00;;;;;21.49;63.28;100647.81;4892064;29;45346;-79
2021/07/04 09:40:25;;;;;;;;;3.00;2.00;;;;;21.49;63.94;100636.09;4892991;29;45556;-79
2021/07/04 09:42:58;;;;;;;;;1.00;1.00;;;;;21.56;63.91;100635.47;4903492;29;45571;-80
2021/07/04 09:45:27;;;;;;;;;1.00;1.00;;;;;21.56;62.95;100638.16;4894913;29;45364;-80
2021/07/04 09:47:55;;;;;;;;;2.00;1.25;;;;;21.59;63.07;100643.34;4886729;29;45356;-79
2021/07/04 09:50:21;;;;;;;;;1.00;1.00;;;;;21.59;63.34;100637.94;4890986;29;45387;-79
2021/07/04 09:53:00;;;;;;;;;1.00;1.00;;;;;21.57;62.83;100639.91;4905911;29;45461;-80
2021/07/04 09:55:26;;;;;;;;;1.00;1.00;;;;;21.56;62.44;100635.47;4887338;29;45428;-79
2021/07/04 09:57:58;;;;;;;;;1.50;1.00;;;;;21.58;62.81;100638.91;4886887;29;45417;-79
2021/07/04 10:00:29;;;;;;;;;2.00;1.25;;;;;21.57;62.47;100644.50;4896216;29;46090;-78
2021/07/04 10:03:04;;;;;;;;;3.50;2.25;;;;;21.59;62.68;100632.50;4899413;29;45460;-79
2021/07/04 10:05:30;;;;;;;;;2.00;2.00;;;;;21.58;62.71;100638.06;4897380;29;45403;-78
2021/07/04 10:07:55;;;;;;;;;1.75;1.75;;;;;21.61;61.32;100632.38;4886824;29;45500;-77
2021/07/04 10:10:21;;;;;;;;;1.00;1.00;;;;;21.58;62.64;100624.47;4888332;29;45359;-77
2021/07/04 10:12:46;;;;;;;;;1.75;1.75;;;;;21.65;62.53;100628.41;4903402;29;45546;-78
2021/07/04 10:15:12;;;;;;;;;1.75;1.25;;;;;21.62;61.72;100613.25;4900178;29;45420;-77
2021/07/04 10:17:39;;;;;;;;;1.00;1.00;;;;;21.61;61.43;100605.22;4894959;29;45461;-84
2021/07/04 10:20:05;;;;;;;;;1.50;1.00;;;;;21.48;62.26;100580.88;4887713;29;46433;-84
2021/07/04 10:22:36;;;;;;;;;2.50;1.50;;;;;21.78;62.61;100626.44;4886569;29;45483;-83
2021/07/04 10:25:04;;;;;;;;;2.00;1.00;;;;;21.77;62.04;100610.28;4890532;29;45359;-85
2021/07/04 10:27:33;;;;;;;;;1.00;1.00;;;;;21.82;62.01;100624.34;4893413;29;45577;-82
2021/07/04 10:29:58;;;;;;;;;1.50;1.50;;;;;21.83;61.88;100626.06;4898319;29;46717;-82
2021/07/04 10:32:24;;;;;;;;;1.00;1.00;;;;;21.84;60.98;100615.06;4900505;29;45689;-79
2021/07/04 10:34:50;;;;;;;;;2.00;2.00;;;;;21.80;60.74;100608.16;4897712;29;45499;-79
2021/07/04 10:37:31;;;;;;;;;1.00;1.00;;;;;21.92;61.33;100619.00;4893341;29;45527;-78
2021/07/04 10:40:15;;;;;;;;;0.25;0.25;;;;;21.95;60.28;100613.31;4900105;29;46269;-76
2021/07/04 10:42:42;;;;;;;;;2.50;1.00;;;;;21.97;60.60;100611.34;4903073;28;45577;-84
2021/07/04 10:45:44;;;;;;;;;1.25;1.00;;;;;22.04;60.20;100603.56;4894923;29;45701;-78
2021/07/04 10:48:21;;;;;;;;;1.00;1.00;;;;;21.99;59.51;100593.91;4826872;29;45707;-81
2021/07/04 10:51:09;;;;;;;;;0.50;0.50;;;;;22.08;59.41;100603.16;4874905;29;45598;-82
2021/07/04 10:53:53;;;;;;;;;2.25;2.25;;;;;22.08;59.66;100596.88;4884763;29;45511;-76
2021/07/04 10:56:34;;;;;;;;;4.00;4.00;;;;;22.08;59.63;100611.31;4871685;29;45592;-82
2021/07/04 10:59:08;;;;;;;;;5.25;5.00;;;;;22.05;60.53;100619.72;4884108;29;45492;-72
2021/07/04 11:01:52;;;;;;;;;2.00;2.00;;;;;22.02;60.79;100617.28;4893350;29;46061;-72
2021/07/04 11:04:27;;;;;;;;;4.00;4.00;;;;;21.99;61.20;100609.38;4875924;29;45969;-72
2021/07/04 11:06:58;;;;;;;;;4.25;4.25;;;;;21.96;61.91;100607.75;4894917;29;45525;-71
2021/07/04 11:09:55;;;;;;;;;19.00;15.25;;;;;21.96;62.43;100605.03;4865394;29;45747;-71
2021/07/04 11:12:27;;;;;;;;;2.75;2.75;;;;;21.98;61.40;100599.47;4848594;29;47105;-71
2021/07/04 11:15:11;;;;;;;;;2.00;2.00;;;;;22.00;61.93;100605.63;4883537;29;45556;-71
2021/07/04 11:17:55;;;;;;;;;2.50;1.00;;;;;22.02;60.94;100593.66;4880062;29;45500;-75
2021/07/04 11:20:27;;;;;;;;;1.75;1.25;;;;;22.06;61.00;100593.41;4894026;29;45515;-77
2021/07/04 11:23:04;;;;;;;;;5.00;5.00;;;;;22.03;61.37;100572.78;4888035;29;45438;-74
2021/07/04 11:26:08;;;;;;;;;7.50;7.50;;;;;22.16;61.16;100581.63;4902838;29;45649;-73
2021/07/04 11:28:51;;;;;;;;;4.75;3.00;;;;;22.17;61.51;100564.34;4890463;29;45503;-74